Time;durP1;ratioP1;P1;durP2;ratioP2;P2;SDS_P1;SDS_P2;PMS_P1;PMS_P2;Temp;Humidity;BMP_temperature;BMP_pressure;BME280_temperature;BME280_humidity;BME280_pressure;Samples;Min_cycle;Max_cycle;Signal;HPM_P1;HPM_P2
2022/12/22 07:44:58;;;;;;;4.78;1.05;;;;;;;11.87;90.54;99377.38;5092323;28;20087;-68
2022/12/22 07:47:23;;;;;;;2.55;0.90;;;;;;;11.86;91.76;99386.38;5093081;28;20048;-69
2022/12/22 07:52:32;;;;;;;6.20;1.30;;;;;;;11.85;91.11;99366.06;5092857;28;20035;-69
2022/12/22 07:54:58;;;;;;;4.57;0.88;;;;;;;11.81;91.72;99364.84;5093175;28;20047;-70
2022/12/22 07:57:25;;;;;;;2.33;1.08;;;;;;;11.79;92.14;99367.66;5093055;28;20032;-69
2022/12/22 07:59:50;;;;;;;1.88;1.02;;;;;;;11.83;91.04;99370.78;5092849;28;20050;-68
2022/12/22 08:02:15;;;;;;;3.88;1.20;;;;;;;11.90;89.84;99366.28;5092611;28;20040;-70
2022/12/22 08:04:41;;;;;;;1.75;0.95;;;;;;;11.88;91.27;99368.34;5092824;28;20115;-60
2022/12/22 08:07:06;;;;;;;1.23;0.93;;;;;;;11.88;90.48;99376.34;5090484;28;20051;-61
2022/12/22 08:09:32;;;;;;;3.13;1.00;;;;;;;11.88;90.86;99371.00;5092375;28;20028;-70
2022/12/22 08:11:57;;;;;;;3.75;0.88;;;;;;;11.89;90.37;99375.31;5092373;28;20471;-70
2022/12/22 08:14:22;;;;;;;1.60;0.90;;;;;;;11.95;89.81;99366.50;5092577;28;20040;-70
2022/12/22 08:16:48;;;;;;;2.85;0.82;;;;;;;11.93;90.58;99366.72;5092492;28;20074;-69
2022/12/22 08:19:13;;;;;;;4.15;0.55;;;;;;;11.94;92.26;99362.19;5092450;28;20192;-69
2022/12/22 08:21:39;;;;;;;1.40;0.93;;;;;;;11.91;93.13;99376.75;5092024;28;20442;-70
2022/12/22 08:24:04;;;;;;;0.73;0.68;;;;;;;11.84;92.09;99364.44;5092420;28;20064;-69
2022/12/22 08:26:47;;;;;;;4.13;0.70;;;;;;;11.83;92.47;99360.13;5092468;28;20036;-69
2022/12/22 08:29:23;;;;;;;7.20;1.65;;;;;;;11.86;92.23;99363.19;5092280;28;20327;-69
2022/12/22 08:31:48;;;;;;;5.82;1.30;;;;;;;11.90;91.69;99369.78;5092078;28;20040;-69
2022/12/22 08:34:15;;;;;;;2.58;0.88;;;;;;;11.86;94.55;99365.84;5092377;28;20028;-69
2022/12/22 08:36:44;;;;;;;5.55;1.25;;;;;;;11.82;95.51;99358.47;5092240;28;20485;-69
2022/12/22 08:39:11;;;;;;;3.45;1.13;;;;;;;11.77;94.57;99368.91;5073793;28;20048;-69
2022/12/22 08:41:52;;;;;;;3.47;1.05;;;;;;;11.74;94.75;99386.16;5091672;28;20072;-69
2022/12/22 08:44:23;;;;;;;5.85;1.45;;;;;;;11.72;96.77;99403.34;5092064;28;20115;-69
2022/12/22 08:46:50;;;;;;;4.30;1.00;;;;;;;11.69;99.79;99388.59;5091959;28;20035;-69
2022/12/22 08:49:16;;;;;;;3.10;1.60;;;;;;;11.55;100.00;99406.41;5091934;28;20187;-69
2022/12/22 08:51:42;;;;;;;6.20;1.38;;;;;;;11.27;100.00;99408.31;5091491;28;20043;-68
2022/12/22 08:54:08;;;;;;;5.68;1.30;;;;;;;11.17;100.00;99414.00;5091944;28;20080;-69
2022/12/22 08:56:34;;;;;;;2.63;1.00;;;;;;;11.03;100.00;99397.13;5091620;28;20040;-68
2022/12/22 08:59:03;;;;;;;7.60;1.40;;;;;;;10.95;100.00;99410.59;5091844;28;20050;-68
2022/12/22 09:01:31;;;;;;;3.00;0.90;;;;;;;10.85;100.00;99408.28;5091560;28;20028;-68
2022/12/22 09:03:56;;;;;;;7.20;1.02;;;;;;;10.87;100.00;99410.75;5091875;28;20036;-69
2022/12/22 09:06:23;;;;;;;6.47;1.17;;;;;;;10.88;100.00;99401.72;5091672;28;20123;-68
2022/12/22 09:08:56;;;;;;;5.10;0.87;;;;;;;10.88;100.00;99407.06;5073682;28;20036;-69
2022/12/22 09:11:23;;;;;;;4.22;1.38;;;;;;;10.84;100.00;99413.81;5091456;28;20126;-69
2022/12/22 09:13:52;;;;;;;2.85;1.45;;;;;;;10.84;100.00;99432.47;5091723;28;20040;-68
2022/12/22 09:16:18;;;;;;;1.75;0.70;;;;;;;10.75;100.00;99428.28;5073728;28;20086;-68
2022/12/22 09:18:44;;;;;;;3.60;1.02;;;;;;;10.71;100.00;99435.03;5091859;28;20399;-69
2022/12/22 09:21:10;;;;;;;4.18;1.20;;;;;;;10.62;100.00;99457.50;5090995;28;20115;-68
2022/12/22 09:23:35;;;;;;;3.08;1.17;;;;;;;10.53;100.00;99468.28;5091415;28;20032;-69
2022/12/22 09:26:09;;;;;;;4.75;1.02;;;;;;;10.48;100.00;99473.34;5086558;28;20032;-69
2022/12/22 09:28:35;;;;;;;5.15;1.20;;;;;;;10.33;100.00;99478.75;5070718;28;20050;-69
2022/12/22 09:31:01;;;;;;;5.30;0.80;;;;;;;10.27;100.00;99484.84;5070835;28;20048;-68
2022/12/22 09:33:26;;;;;;;9.90;1.30;;;;;;;10.24;100.00;99484.41;5052287;28;20044;-68
2022/12/22 09:35:52;;;;;;;2.15;0.98;;;;;;;10.18;100.00;99479.81;5071173;28;20374;-69
2022/12/22 09:38:17;;;;;;;1.40;0.85;;;;;;;10.07;100.00;99495.25;5070281;28;20058;-69
2022/12/22 09:40:43;;;;;;;5.25;0.88;;;;;;;10.01;100.00;99492.50;5071046;28;20047;-69
2022/12/22 09:43:15;;;;;;;1.45;1.00;;;;;;;10.02;100.00;99491.50;5071387;28;20036;-68
2022/12/22 09:45:42;;;;;;;6.38;1.52;;;;;;;10.02;100.00;99489.66;5053442;28;20042;-69
2022/12/22 09:48:11;;;;;;;4.38;1.10;;;;;;;9.98;100.00;99488.41;5071284;28;20036;-69
2022/12/22 09:50:38;;;;;;;4.68;1.58;;;;;;;9.97;100.00;99494.69;5070872;28;20044;-69
2022/12/22 09:53:06;;;;;;;4.38;0.98;;;;;;;9.94;100.00;99488.94;5071252;28;20083;-69
2022/12/22 09:55:46;;;;;;;15.65;1.48;;;;;;;9.99;100.00;99489.22;5081902;28;20040;-69
2022/12/22 09:58:26;;;;;;;2.92;1.13;;;;;;;10.01;100.00;99501.31;5091224;28;20051;-69
2022/12/22 10:01:19;;;;;;;5.32;0.75;;;;;;;10.04;100.00;99511.59;5090854;28;20032;-69
2022/12/22 10:03:50;;;;;;;8.60;0.98;;;;;;;10.07;100.00;99511.22;5091236;28;20173;-69
2022/12/22 10:06:19;;;;;;;7.13;1.25;;;;;;;10.10;100.00;99519.81;5091072;28;20514;-69
2022/12/22 10:08:45;;;;;;;1.52;1.13;;;;;;;10.13;100.00;99525.59;5093928;28;20051;-69
2022/12/22 10:11:15;;;;;;;5.50;1.20;;;;;;;10.20;100.00;99528.34;5094718;28;20032;-70
2022/12/22 10:13:41;;;;;;;1.65;0.88;;;;;;;10.21;100.00;99528.13;5094927;28;20393;-69
2022/12/22 10:16:26;;;;;;;1.48;0.88;;;;;;;10.26;100.00;99533.75;5094732;28;20040;-70
2022/12/22 10:19:19;;;;;;;5.25;0.70;;;;;;;10.33;100.00;99561.28;5094877;28;20051;-70
2022/12/22 10:21:45;;;;;;;3.42;1.15;;;;;;;10.39;100.00;99553.56;5094484;28;20497;-70
2022/12/22 10:24:27;;;;;;;6.95;1.08;;;;;;;10.41;100.00;99549.69;5094765;28;20119;-70
2022/12/22 10:26:57;;;;;;;4.90;0.63;;;;;;;10.43;100.00;99553.00;5094666;28;20036;-70
2022/12/22 10:29:24;;;;;;;5.97;0.98;;;;;;;10.38;100.00;99552.72;5094669;28;20032;-70
2022/12/22 10:32:00;;;;;;;5.13;0.93;;;;;;;10.35;100.00;99560.25;5094138;28;20024;-70
2022/12/22 10:34:26;;;;;;;3.42;0.68;;;;;;;10.30;100.00;99561.66;5094510;28;20051;-70
2022/12/22 10:37:00;;;;;;;1.67;0.45;;;;;;;10.32;100.00;99572.13;5094684;28;20060;-70
2022/12/22 10:39:29;;;;;;;3.28;0.90;;;;;;;10.36;100.00;99586.69;5076254;28;20385;-69
2022/12/22 10:41:59;;;;;;;0.80;0.65;;;;;;;10.29;100.00;99572.47;5094109;28;20374;-69
2022/12/22 10:44:28;;;;;;;4.00;1.10;;;;;;;10.25;100.00;99581.88;5094417;28;20119;-70
2022/12/22 10:47:00;;;;;;;1.38;1.08;;;;;;;10.20;100.00;99574.41;5094234;28;20089;-69
2022/12/22 10:49:32;;;;;;;2.22;0.93;;;;;;;10.15;100.00;99573.31;5093638;28;20101;-70
2022/12/22 10:52:14;;;;;;;7.07;0.85;;;;;;;10.15;100.00;99573.31;5092520;28;20040;-69
2022/12/22 10:54:43;;;;;;;4.75;0.95;;;;;;;10.09;100.00;99585.53;5093755;28;20031;-69
2022/12/22 10:57:11;;;;;;;1.60;0.60;;;;;;;10.05;100.00;99586.91;5094145;28;20047;-69
2022/12/22 10:59:59;;;;;;;3.50;0.85;;;;;;;9.98;100.00;99586.84;5091358;28;20043;-70
2022/12/22 11:02:28;;;;;;;1.65;0.80;;;;;;;9.99;100.00;99588.47;5093894;28;20032;-70
2022/12/22 11:05:00;;;;;;;1.65;0.68;;;;;;;9.97;100.00;99597.66;5093947;28;20028;-70
2022/12/22 11:07:29;;;;;;;1.00;0.85;;;;;;;9.98;100.00;99591.34;5094053;28;20406;-70
2022/12/22 11:09:55;;;;;;;1.05;0.70;;;;;;;10.03;100.00;99600.38;5094050;28;20036;-70
2022/12/22 11:12:32;;;;;;;3.92;0.57;;;;;;;10.03;100.00;99608.38;5093574;28;20063;-70
2022/12/22 11:15:16;;;;;;;5.93;0.88;;;;;;;10.03;100.00;99608.38;5093824;28;20034;-70
2022/12/22 11:18:15;;;;;;;1.17;0.65;;;;;;;10.06;100.00;99616.00;5093527;28;20040;-70
2022/12/22 11:20:57;;;;;;;2.90;1.00;;;;;;;10.10;100.00;99620.94;5093355;28;20036;-69
2022/12/22 11:23:36;;;;;;;9.23;1.15;;;;;;;10.06;100.00;99621.31;5093678;28;20134;-70
2022/12/22 11:26:13;;;;;;;2.03;0.90;;;;;;;9.99;100.00;99620.41;5093560;28;20036;-70
2022/12/22 11:29:03;;;;;;;1.23;0.80;;;;;;;9.89;100.00;99632.34;5093556;28;20469;-70
2022/12/22 11:32:24;;;;;;;3.42;0.80;;;;;;;9.82;100.00;99634.91;5093074;28;20058;-70
2022/12/22 11:35:15;;;;;;;5.50;1.13;;;;;;;9.82;100.00;99631.41;5038075;28;20511;-69
2022/12/22 11:38:00;;;;;;;4.15;0.68;;;;;;;9.78;100.00;99641.63;5093474;28;20512;-70
2022/12/22 11:40:34;;;;;;;4.03;0.68;;;;;;;9.72;100.00;99640.50;5092998;28;20051;-69
2022/12/22 11:43:29;;;;;;;2.63;0.57;;;;;;;9.70;100.00;99633.69;5093360;28;20089;-69
2022/12/22 11:46:03;;;;;;;3.58;1.08;;;;;;;9.66;100.00;99633.25;5020550;28;20136;-67
2022/12/22 11:48:50;;;;;;;3.92;1.02;;;;;;;9.66;100.00;99641.22;5093029;28;20031;-69
2022/12/22 11:51:55;;;;;;;3.58;1.00;;;;;;;9.66;100.00;99627.13;5092675;28;20032;-69
2022/12/22 11:54:36;;;;;;;5.22;1.20;;;;;;;9.65;100.00;99628.09;5093531;28;20055;-69
2022/12/22 11:57:38;;;;;;;4.20;0.70;;;;;;;9.65;100.00;99633.41;5094296;28;20044;-68
2022/12/22 12:00:14;;;;;;;5.35;1.00;;;;;;;9.65;100.00;99641.38;5093089;28;20085;-69
2022/12/22 12:03:10;;;;;;;1.35;0.73;;;;;;;9.64;100.00;99647.72;5092829;28;20039;-68
2022/12/22 12:05:58;;;;;;;7.13;1.80;;;;;;;9.61;100.00;99648.09;5092709;28;20032;-68
2022/12/22 12:08:48;;;;;;;5.05;1.98;;;;;;;9.63;100.00;99651.38;5092752;28;20028;-69
2022/12/22 12:11:26;;;;;;;1.42;1.00;;;;;;;9.62;100.00;99649.75;5092380;28;20028;-69
2022/12/22 12:14:22;;;;;;;7.70;1.92;;;;;;;9.65;100.00;99642.25;5092683;28;20035;-69
2022/12/22 12:16:58;;;;;;;7.57;1.80;;;;;;;9.63;100.00;99651.38;5092445;28;20370;-69
2022/12/22 12:19:26;;;;;;;6.05;1.08;;;;;;;9.62;100.00;99655.88;5092629;28;20044;-69
2022/12/22 12:21:56;;;;;;;3.08;1.13;;;;;;;9.62;100.00;99653.22;5092022;28;20050;-69
2022/12/22 12:24:40;;;;;;;2.17;1.40;;;;;;;9.60;100.00;99660.56;5092509;28;20485;-69
2022/12/22 12:27:31;;;;;;;5.10;1.58;;;;;;;9.62;100.00;99660.38;5092357;28;20035;-69
2022/12/22 12:30:11;;;;;;;4.20;1.33;;;;;;;9.58;100.00;99656.41;5091899;28;20555;-67
2022/12/22 12:32:49;;;;;;;2.15;1.20;;;;;;;9.59;100.00;99661.56;5092211;28;20093;-67
2022/12/22 12:35:45;;;;;;;2.63;1.10;;;;;;;9.57;100.00;99663.56;5095203;28;20043;-67
2022/12/22 12:38:47;;;;;;;1.85;0.93;;;;;;;9.61;100.00;99661.41;5094859;28;20054;-67
2022/12/22 12:41:57;;;;;;;2.25;1.10;;;;;;;9.60;100.00;99659.75;5067716;28;20082;-67
2022/12/22 12:44:27;;;;;;;6.75;1.05;;;;;;;9.64;100.00;99650.38;5071455;28;20472;-68
2022/12/22 12:47:03;;;;;;;5.40;1.17;;;;;;;9.69;100.00;99666.63;5092159;28;20032;-69
2022/12/22 12:49:32;;;;;;;5.73;1.50;;;;;;;9.70;100.00;99674.41;5092123;28;20087;-67
2022/12/22 12:51:57;;;;;;;2.53;1.00;;;;;;;9.64;100.00;99663.69;5091656;28;20600;-67
2022/12/22 12:54:29;;;;;;;8.13;0.95;;;;;;;9.70;100.00;99684.22;5092010;28;20040;-67
2022/12/22 12:57:27;;;;;;;5.22;1.00;;;;;;;9.76;100.00;99680.84;5092006;28;20079;-69
2022/12/22 12:59:59;;;;;;;7.10;1.38;;;;;;;9.76;100.00;99684.31;5091714;28;20043;-68
2022/12/22 13:02:30;;;;;;;1.25;0.90;;;;;;;9.83;100.00;99697.72;5091860;28;20035;-68
2022/12/22 13:05:10;;;;;;;2.10;1.05;;;;;;;9.86;100.00;99692.06;5092035;28;20036;-68
2022/12/22 13:08:05;;;;;;;3.97;1.38;;;;;;;9.87;100.00;99691.06;5091820;28;20078;-67
2022/12/22 13:10:38;;;;;;;4.20;1.00;;;;;;;9.85;100.00;99690.41;5091342;28;20036;-68
2022/12/22 13:13:05;;;;;;;4.97;1.27;;;;;;;9.86;100.00;99702.69;5091870;28;20147;-67
2022/12/22 13:15:36;;;;;;;8.02;1.42;;;;;;;9.85;100.00;99687.75;5091631;28;20106;-68
2022/12/22 13:18:08;;;;;;;2.08;1.08;;;;;;;9.88;100.00;99684.72;5091800;28;20128;-67
2022/12/22 13:20:38;;;;;;;4.65;1.17;;;;;;;9.86;100.00;99684.09;5091465;28;20120;-68
2022/12/22 13:23:11;;;;;;;3.33;1.48;;;;;;;9.89;100.00;99698.84;5074092;28;20085;-67
2022/12/22 13:25:52;;;;;;;1.15;0.60;;;;;;;9.87;100.00;99707.00;5091564;28;20036;-67
2022/12/22 13:28:21;;;;;;;4.28;1.20;;;;;;;9.86;100.00;99710.69;5091758;28;20036;-69
2022/12/22 13:30:49;;;;;;;3.33;1.95;;;;;;;9.88;100.00;99713.97;5091175;28;20062;-67
2022/12/22 13:33:23;;;;;;;2.50;1.55;;;;;;;9.90;100.00;99711.13;5091598;28;20409;-66
2022/12/22 13:35:49;;;;;;;6.18;1.50;;;;;;;9.89;100.00;99712.97;5091532;28;20085;-66
2022/12/22 13:38:44;;;;;;;5.80;1.30;;;;;;;9.91;100.00;99713.63;5091606;28;20044;-67
2022/12/22 13:41:15;;;;;;;3.15;0.85;;;;;;;9.90;100.00;99703.97;5073834;28;20392;-66
2022/12/22 13:43:43;;;;;;;5.50;1.70;;;;;;;9.95;100.00;99708.75;5094276;28;20028;-66
2022/12/22 13:46:09;;;;;;;4.40;1.30;;;;;;;9.98;100.00;99703.91;5095756;28;20451;-66
2022/12/22 13:48:40;;;;;;;5.47;1.30;;;;;;;9.99;100.00;99710.88;5095505;28;20032;-67
2022/12/22 13:51:16;;;;;;;2.97;1.90;;;;;;;10.06;100.00;99713.63;5095066;28;20512;-67
2022/12/22 13:54:09;;;;;;;10.05;1.50;;;;;;;10.04;100.00;99700.53;5095520;28;20039;-68
2022/12/22 13:56:39;;;;;;;4.75;1.33;;;;;;;10.04;100.00;99702.31;5095234;28;20036;-66
2022/12/22 13:59:27;;;;;;;4.28;1.23;;;;;;;10.04;100.00;99697.00;5095502;28;20438;-66
2022/12/22 14:02:10;;;;;;;7.47;3.70;;;;;;;10.07;100.00;99696.66;5095017;28;20036;-67
2022/12/22 14:04:38;;;;;;;11.35;1.50;;;;;;;10.07;100.00;99691.34;5095187;28;20089;-66
2022/12/22 14:07:13;;;;;;;10.75;1.50;;;;;;;10.05;100.00;99694.19;5095129;28;20038;-67
2022/12/22 14:09:47;;;;;;;7.13;1.35;;;;;;;10.04;100.00;99700.53;5095112;28;20119;-67
2022/12/22 14:12:20;;;;;;;1.33;1.05;;;;;;;10.04;100.00;99689.88;5094805;28;20489;-66
2022/12/22 14:14:49;;;;;;;3.53;1.48;;;;;;;10.07;100.00;99694.81;5095008;28;20447;-69
2022/12/22 14:17:25;;;;;;;3.83;1.00;;;;;;;10.05;100.00;99694.19;5094816;28;20040;-68
2022/12/22 14:19:56;;;;;;;3.92;1.10;;;;;;;10.03;100.00;99703.34;5094885;28;20048;-67
2022/12/22 14:22:27;;;;;;;5.35;1.10;;;;;;;10.04;100.00;99708.50;5094610;28;20032;-67
2022/12/22 14:24:57;;;;;;;11.93;2.08;;;;;;;10.03;100.00;99711.31;5094662;28;20086;-68
2022/12/22 14:27:40;;;;;;;5.20;1.27;;;;;;;10.02;100.00;99715.81;5094580;28;20044;-69
2022/12/22 14:30:17;;;;;;;2.30;1.30;;;;;;;10.02;100.00;99705.19;5094631;28;20134;-67
2022/12/22 14:32:49;;;;;;;3.60;1.23;;;;;;;10.00;100.00;99707.19;5094630;28;20416;-67
2022/12/22 14:35:20;;;;;;;0.98;0.98;;;;;;;10.00;100.00;99712.53;5094627;28;20111;-69
2022/12/22 14:38:01;;;;;;;4.57;1.08;;;;;;;10.03;100.00;99712.16;5094648;28;20400;-67
2022/12/22 14:40:33;;;;;;;4.10;1.23;;;;;;;10.03;100.00;99709.47;5094451;28;20047;-68
2022/12/22 14:43:02;;;;;;;9.13;1.38;;;;;;;10.05;100.00;99714.66;5094467;28;20035;-68
2022/12/22 14:45:27;;;;;;;6.63;1.80;;;;;;;10.06;100.00;99709.13;5094408;28;20056;-68
2022/12/22 14:47:54;;;;;;;5.40;1.63;;;;;;;10.04;100.00;99702.31;5094506;28;20114;-68
2022/12/22 14:50:22;;;;;;;3.38;1.25;;;;;;;10.00;100.00;99709.88;5076053;28;20058;-67
2022/12/22 14:52:57;;;;;;;6.97;1.55;;;;;;;10.03;100.00;99717.47;5094219;28;20039;-67
2022/12/22 14:55:25;;;;;;;13.30;4.70;;;;;;;10.08;100.00;99706.28;5094137;28;20093;-67
2022/12/22 14:57:52;;;;;;;;;;;;;;;10.11;100.00;99705.94;5094681;28;20404;-67
2022/12/22 15:00:20;;;;;;;14.10;1.73;;;;;;;10.10;100.00;99701.59;5094227;28;19928;-67
2022/12/22 15:02:55;;;;;;;3.20;1.23;;;;;;;10.06;100.00;99701.16;5094127;28;20502;-66
2022/12/22 15:05:24;;;;;;;4.90;2.03;;;;;;;10.07;100.00;99696.66;5094135;28;20118;-67
2022/12/22 15:07:52;;;;;;;6.97;1.45;;;;;;;10.09;100.00;99707.09;5094030;28;20035;-66
2022/12/22 15:10:17;;;;;;;;;;;;;;;10.11;100.00;99702.44;5076093;28;20085;-68
2022/12/22 15:12:44;;;;;;;4.93;1.30;;;;;;;10.11;100.00;99703.28;5093906;28;19930;-66
2022/12/22 15:15:16;;;;;;;8.85;1.67;;;;;;;10.14;100.00;99716.19;5093903;28;20519;-68
2022/12/22 15:17:44;;;;;;;2.08;1.00;;;;;;;10.16;100.00;99722.16;5093881;28;20126;-67
2022/12/22 15:20:15;;;;;;;10.02;3.08;;;;;;;10.14;100.00;99715.38;5093845;28;20405;-67
2022/12/22 15:22:40;;;;;;;3.78;1.55;;;;;;;10.14;100.00;99715.38;5093849;28;20465;-66
2022/12/22 15:25:14;;;;;;;4.38;1.30;;;;;;;10.17;100.00;99723.84;5093693;28;20040;-67
2022/12/22 15:27:39;;;;;;;7.63;1.20;;;;;;;10.14;100.00;99721.53;5093575;28;20036;-66
2022/12/22 15:30:05;;;;;;;5.43;1.20;;;;;;;10.20;100.00;99719.97;5093343;28;20042;-64
2022/12/22 15:32:30;;;;;;;7.13;1.27;;;;;;;10.19;100.00;99715.66;5093300;28;20067;-67
2022/12/22 15:34:56;;;;;;;7.55;1.80;;;;;;;10.21;100.00;99717.13;5093553;28;20055;-67
2022/12/22 15:37:21;;;;;;;4.78;1.27;;;;;;;10.26;100.00;99722.75;5093374;28;20036;-64
2022/12/22 15:39:47;;;;;;;5.90;2.00;;;;;;;10.25;100.00;99722.94;5093343;28;20080;-67
2022/12/22 15:42:12;;;;;;;1.90;0.85;;;;;;;10.32;100.00;99715.88;5093045;28;20401;-68
2022/12/22 15:44:37;;;;;;;7.80;1.23;;;;;;;10.39;100.00;99715.97;5093227;28;20108;-69
2022/12/22 15:47:03;;;;;;;1.77;0.93;;;;;;;10.36;100.00;99711.00;5093235;28;20040;-68
2022/12/22 15:49:29;;;;;;;2.05;1.38;;;;;;;10.30;100.00;99705.41;5093345;28;20506;-68
2022/12/22 15:51:58;;;;;;;1.58;1.02;;;;;;;10.30;100.00;99704.56;5092831;28;20043;-68
2022/12/22 15:54:25;;;;;;;8.95;2.15;;;;;;;10.30;100.00;99700.09;5093105;28;20034;-68
2022/12/22 15:56:53;;;;;;;2.20;1.55;;;;;;;10.28;100.00;99703.94;5092985;28;20036;-68
2022/12/22 15:59:22;;;;;;;2.70;0.93;;;;;;;10.22;100.00;99713.44;5093018;28;20101;-68
2022/12/22 16:01:49;;;;;;;3.83;1.20;;;;;;;10.22;100.00;99713.44;5092734;28;20032;-68
2022/12/22 16:04:16;;;;;;;7.13;2.47;;;;;;;10.22;100.00;99709.97;5093136;28;20043;-60
2022/12/22 16:06:41;;;;;;;4.78;1.40;;;;;;;10.21;100.00;99708.31;5092564;28;20455;-61
2022/12/22 16:09:15;;;;;;;5.95;1.52;;;;;;;10.20;100.00;99704.00;5092938;28;20044;-69
2022/12/22 16:11:40;;;;;;;6.75;2.00;;;;;;;10.20;100.00;99701.34;5092400;28;20424;-68
2022/12/22 16:14:11;;;;;;;1.25;0.98;;;;;;;10.22;100.00;99697.47;5092721;28;20043;-68
2022/12/22 16:16:37;;;;;;;9.25;1.83;;;;;;;10.26;100.00;99705.97;5092584;28;20096;-68
2022/12/22 16:19:03;;;;;;;5.45;1.58;;;;;;;10.23;100.00;99698.31;5092627;28;20040;-68
2022/12/22 16:21:31;;;;;;;3.47;1.83;;;;;;;10.20;100.00;99704.00;5092223;28;20518;-68
2022/12/22 16:23:59;;;;;;;5.72;1.13;;;;;;;10.20;100.00;99690.69;5092478;28;20032;-68
2022/12/22 16:26:24;;;;;;;;;;;;;;;10.16;100.00;99690.22;5093069;28;20119;-68
2022/12/22 16:28:50;;;;;;;5.13;1.63;;;;;;;10.18;100.00;99684.75;5092461;28;19954;-68
2022/12/22 16:31:21;;;;;;;7.18;1.92;;;;;;;10.16;100.00;99687.56;5091943;28;20044;-68
2022/12/22 16:33:47;;;;;;;8.13;2.72;;;;;;;10.11;100.00;99686.47;5092401;28;20044;-68
2022/12/22 16:36:13;;;;;;;4.88;1.35;;;;;;;10.09;100.00;99691.13;5074187;28;20477;-68
2022/12/22 16:38:38;;;;;;;6.95;1.52;;;;;;;10.06;100.00;99687.84;5092161;28;20503;-68
2022/12/22 16:41:05;;;;;;;3.72;1.58;;;;;;;10.06;100.00;99692.34;5091884;28;20038;-68
2022/12/22 16:43:37;;;;;;;5.80;1.52;;;;;;;10.07;100.00;99676.19;5092148;28;20039;-68
2022/12/22 16:46:05;;;;;;;5.50;1.40;;;;;;;10.05;100.00;99666.75;5092032;28;20036;-68
2022/12/22 16:48:38;;;;;;;8.82;2.00;;;;;;;10.07;100.00;99668.22;5092130;28;20401;-68
2022/12/22 16:51:05;;;;;;;9.32;2.50;;;;;;;10.15;100.00;99666.47;5091690;28;20043;-68
2022/12/22 16:53:30;;;;;;;4.13;1.60;;;;;;;10.14;100.00;99659.50;5091869;28;20043;-68
2022/12/22 16:55:58;;;;;;;5.03;1.85;;;;;;;10.13;100.00;99663.16;5091896;28;20044;-67
2022/12/22 16:58:24;;;;;;;4.10;1.25;;;;;;;10.15;100.00;99661.13;5091858;28;20036;-66
2022/12/22 17:00:49;;;;;;;7.05;1.67;;;;;;;10.21;100.00;99655.06;5091463;28;20497;-66
2022/12/22 17:03:22;;;;;;;3.05;1.30;;;;;;;10.26;100.00;99650.88;5091847;28;20374;-68
2022/12/22 17:05:51;;;;;;;3.65;1.80;;;;;;;10.29;100.00;99649.69;5091723;28;20040;-66
2022/12/22 17:08:26;;;;;;;6.70;1.58;;;;;;;10.32;100.00;99644.00;5073634;28;20501;-67
2022/12/22 17:10:54;;;;;;;8.60;1.33;;;;;;;10.36;100.00;99647.91;5091359;28;20058;-66
2022/12/22 17:13:20;;;;;;;7.63;1.98;;;;;;;10.36;100.00;99639.94;5091728;28;20081;-67
2022/12/22 17:15:45;;;;;;;3.60;1.77;;;;;;;10.41;100.00;99637.53;5091622;28;20062;-66
2022/12/22 17:18:16;;;;;;;2.60;1.27;;;;;;;10.49;100.00;99641.94;5091388;28;20040;-66
2022/12/22 17:20:44;;;;;;;6.53;1.88;;;;;;;10.45;100.00;99635.34;5091301;28;20043;-66
2022/12/22 17:23:25;;;;;;;6.05;1.75;;;;;;;10.45;100.00;99636.16;5091517;28;20038;-67
2022/12/22 17:25:50;;;;;;;7.50;1.65;;;;;;;10.46;100.00;99632.50;5091517;28;20050;-67
2022/12/22 17:28:16;;;;;;;8.80;1.90;;;;;;;10.47;100.00;99618.16;5091649;28;20127;-69
2022/12/22 17:30:41;;;;;;;8.85;1.95;;;;;;;10.57;100.00;99626.69;5091152;28;20489;-69
2022/12/22 17:33:14;;;;;;;6.63;2.17;;;;;;;10.63;100.00;99625.09;5092076;28;20426;-69
2022/12/22 17:35:40;;;;;;;8.18;1.88;;;;;;;10.66;100.00;99615.91;5073314;28;20134;-69
2022/12/22 17:38:15;;;;;;;7.88;1.40;;;;;;;10.75;100.00;99614.75;5091551;28;20115;-69
2022/12/22 17:40:41;;;;;;;9.57;1.95;;;;;;;10.66;100.00;99607.91;5091313;28;20042;-69
2022/12/22 17:43:14;;;;;;;6.15;2.00;;;;;;;10.69;100.00;99603.00;5091483;28;20386;-69
2022/12/22 17:45:41;;;;;;;5.40;1.88;;;;;;;10.78;100.00;99601.91;5091483;28;20081;-69
2022/12/22 17:48:07;;;;;;;9.02;2.47;;;;;;;10.72;100.00;99588.50;5091752;28;20466;-70
2022/12/22 17:50:33;;;;;;;9.95;2.65;;;;;;;10.75;100.00;99593.44;5091306;28;20067;-69
2022/12/22 17:52:59;;;;;;;4.93;1.40;;;;;;;10.79;100.00;99590.22;5091313;28;20047;-69
2022/12/22 17:55:26;;;;;;;8.45;2.10;;;;;;;10.85;100.00;99583.31;5091477;28;20040;-69
2022/12/22 17:57:52;;;;;;;5.93;1.80;;;;;;;10.84;100.00;99587.00;5073372;28;20044;-69
2022/12/22 18:00:23;;;;;;;6.35;1.85;;;;;;;10.83;100.00;99585.34;5091107;28;20293;-68
2022/12/22 18:02:49;;;;;;;3.33;1.30;;;;;;;10.84;100.00;99571.84;5091419;28;20032;-69
2022/12/22 18:05:20;;;;;;;9.38;1.70;;;;;;;10.86;100.00;99568.97;5091193;28;20028;-68
2022/12/22 18:07:47;;;;;;;7.75;1.70;;;;;;;10.95;100.00;99564.31;5091345;28;20043;-69
2022/12/22 18:10:19;;;;;;;7.97;1.52;;;;;;;10.90;100.00;99570.25;5091256;28;20086;-68
2022/12/22 18:12:45;;;;;;;8.85;1.58;;;;;;;11.01;100.00;99571.56;5091284;28;20036;-68
2022/12/22 18:15:15;;;;;;;4.72;1.90;;;;;;;11.01;100.00;99572.38;5091329;28;20059;-69
2022/12/22 18:17:41;;;;;;;5.47;1.90;;;;;;;11.09;100.00;99561.59;5091254;28;20036;-68
2022/12/22 18:20:19;;;;;;;5.80;1.83;;;;;;;11.15;100.00;99560.00;5091160;28;20038;-68
2022/12/22 18:22:45;;;;;;;8.27;1.83;;;;;;;11.22;100.00;99568.06;5091327;28;20054;-69
2022/12/22 18:25:23;;;;;;;8.32;1.70;;;;;;;11.26;100.00;99553.28;5091313;28;20607;-69
2022/12/22 18:27:48;;;;;;;;;;;;;;;11.26;100.00;99559.44;5091729;28;20036;-68
2022/12/22 18:30:23;;;;;;;6.43;2.10;;;;;;;11.26;100.00;99558.63;5094345;28;19914;-68
2022/12/22 18:32:50;;;;;;;4.78;1.45;;;;;;;11.20;100.00;99554.06;5093241;28;20036;-69
2022/12/22 18:35:17;;;;;;;8.70;2.72;;;;;;;11.19;100.00;99560.41;5093290;28;20036;-68
2022/12/22 18:37:43;;;;;;;2.13;1.23;;;;;;;11.10;100.00;99555.25;5086352;28;20047;-70
2022/12/22 18:40:26;;;;;;;5.45;1.90;;;;;;;11.01;100.00;99553.72;5092016;28;20450;-67
2022/12/22 18:42:52;;;;;;;4.50;1.73;;;;;;;10.98;100.00;99554.13;5094633;28;20024;-66
2022/12/22 18:45:20;;;;;;;9.32;2.00;;;;;;;10.90;100.00;99551.59;5094395;28;20035;-67
2022/12/22 18:47:45;;;;;;;5.43;1.95;;;;;;;10.86;100.00;99542.31;5094350;28;20036;-68
2022/12/22 18:50:17;;;;;;;8.55;2.60;;;;;;;10.77;100.00;99544.31;5093974;28;20020;-67
2022/12/22 18:52:43;;;;;;;10.77;1.90;;;;;;;10.72;100.00;99543.22;5094222;28;20104;-68
2022/12/22 18:55:25;;;;;;;5.63;1.90;;;;;;;10.62;100.00;99545.38;5094248;28;20040;-68
2022/12/22 18:57:52;;;;;;;11.23;2.22;;;;;;;10.51;100.00;99546.72;5094348;28;20040;-67
2022/12/22 19:00:24;;;;;;;15.00;2.17;;;;;;;10.44;100.00;99544.00;5093559;28;20025;-68
2022/12/22 19:02:51;;;;;;;6.35;2.60;;;;;;;10.41;100.00;99543.53;5094155;28;20040;-67
2022/12/22 19:05:22;;;;;;;10.18;2.35;;;;;;;10.32;100.00;99550.81;5093978;28;20090;-67
2022/12/22 19:07:49;;;;;;;3.63;1.65;;;;;;;10.27;100.00;99543.41;5094113;28;20044;-68
2022/12/22 19:10:20;;;;;;;9.20;2.10;;;;;;;10.22;100.00;99540.44;5093404;28;20047;-68
2022/12/22 19:12:53;;;;;;;6.70;2.45;;;;;;;10.18;100.00;99541.03;5094083;28;20104;-68
2022/12/22 19:15:25;;;;;;;10.82;2.33;;;;;;;10.18;100.00;99527.72;5093772;28;20097;-68
2022/12/22 19:17:51;;;;;;;5.82;1.65;;;;;;;10.12;100.00;99529.28;5094100;28;20056;-67
2022/12/22 19:20:19;;;;;;;8.07;1.83;;;;;;;10.11;100.00;99526.81;5093337;28;20036;-69
2022/12/22 19:22:45;;;;;;;7.82;2.13;;;;;;;10.10;100.00;99525.13;5094860;28;20043;-66
2022/12/22 19:25:13;;;;;;;3.40;1.80;;;;;;;10.06;100.00;99525.53;5076199;28;20066;-67
2022/12/22 19:27:38;;;;;;;6.25;1.98;;;;;;;10.03;100.00;99511.75;5094124;28;20043;-67
2022/12/22 19:30:04;;;;;;;9.48;2.92;;;;;;;10.03;100.00;99515.25;5094247;28;20097;-67
2022/12/22 19:32:40;;;;;;;10.60;2.25;;;;;;;10.00;100.00;99514.81;5075436;28;20097;-66
2022/12/22 19:35:20;;;;;;;6.68;2.03;;;;;;;9.98;100.00;99504.38;5094026;28;20108;-68
2022/12/22 19:37:47;;;;;;;6.18;2.25;;;;;;;9.97;100.00;99497.38;5094443;28;20035;-68